createdAt,value
2018-06-14T00:00:50.853Z,14.54
2018-06-14T00:02:17.040Z,14.55
2018-06-14T00:03:45.393Z,14.54
2018-06-14T00:05:13.122Z,14.54
2018-06-14T00:06:39.523Z,14.54
2018-06-14T00:08:07.797Z,14.53
2018-06-14T00:09:34.380Z,14.53
2018-06-14T00:11:02.611Z,14.55
2018-06-14T00:12:28.957Z,14.55
2018-06-14T00:13:56.371Z,14.56
2018-06-14T00:15:24.820Z,14.56
2018-06-14T00:16:52.144Z,14.57
2018-06-14T00:18:18.373Z,14.57
2018-06-14T00:19:46.753Z,14.58
2018-06-14T00:21:14.206Z,14.58
2018-06-14T00:22:41.563Z,14.59
2018-06-14T00:24:07.644Z,14.59
2018-06-14T00:25:35.091Z,14.60
2018-06-14T00:27:02.424Z,14.61
2018-06-14T00:28:30.769Z,14.61
2018-06-14T00:29:58.076Z,14.61
2018-06-14T00:31:24.613Z,14.62
2018-06-14T00:32:52.119Z,14.61
2018-06-14T00:34:19.579Z,14.60
2018-06-14T00:35:46.903Z,14.60
2018-06-14T00:37:14.292Z,14.60
2018-06-14T00:38:42.735Z,14.60
2018-06-14T00:40:10.136Z,14.60
2018-06-14T00:41:36.548Z,14.61
2018-06-14T00:43:04.183Z,14.62
2018-06-14T00:44:31.532Z,14.61
2018-06-14T00:45:58.931Z,14.62
2018-06-14T00:47:27.570Z,14.62
2018-06-14T00:48:53.819Z,14.63
2018-06-14T00:50:22.268Z,14.63
2018-06-14T00:51:48.612Z,14.62
2018-06-14T00:53:15.945Z,14.61
2018-06-14T00:54:43.426Z,14.59
2018-06-14T00:56:10.880Z,14.58
2018-06-14T00:57:38.377Z,14.59
2018-06-14T00:59:05.841Z,14.59
2018-06-14T01:00:34.218Z,14.59
2018-06-14T01:02:01.506Z,14.60
2018-06-14T01:03:28.924Z,14.60
2018-06-14T01:04:55.308Z,14.60
2018-06-14T01:06:22.576Z,14.58
2018-06-14T01:07:51.012Z,14.56
2018-06-14T01:09:17.316Z,14.55
2018-06-14T01:10:44.592Z,14.55
2018-06-14T01:12:12.075Z,14.55
2018-06-14T01:13:39.391Z,14.55
2018-06-14T01:15:06.882Z,14.55
2018-06-14T01:16:35.550Z,14.55
2018-06-14T01:18:01.851Z,14.53
2018-06-14T01:19:29.359Z,14.52
2018-06-14T01:20:57.812Z,14.51
2018-06-14T01:22:25.230Z,14.51
2018-06-14T01:23:52.613Z,14.51
2018-06-14T01:25:18.982Z,14.50
2018-06-14T01:26:47.348Z,14.50
2018-06-14T01:28:14.355Z,14.50
2018-06-14T01:29:40.991Z,14.51
2018-06-14T01:31:08.498Z,14.52
2018-06-14T01:32:37.013Z,14.52
2018-06-14T01:34:03.214Z,14.51
2018-06-14T01:35:30.618Z,14.51
2018-06-14T01:36:59.442Z,14.49
2018-06-14T01:38:26.837Z,14.48
2018-06-14T01:39:54.127Z,14.47
2018-06-14T01:41:21.469Z,14.46
2018-06-14T01:42:47.616Z,14.45
2018-06-14T01:44:16.171Z,14.44
2018-06-14T01:45:43.602Z,14.43
2018-06-14T01:47:11.027Z,14.42
2018-06-14T01:48:38.558Z,14.41
2018-06-14T01:50:05.720Z,14.41
2018-06-14T01:51:33.175Z,14.40
2018-06-14T01:52:59.666Z,14.40
2018-06-14T01:54:27.233Z,14.41
2018-06-14T01:56:00.820Z,14.41
2018-06-14T01:57:23.243Z,14.41
2018-06-14T01:58:49.506Z,14.39
2018-06-14T02:00:18.001Z,14.38
2018-06-14T02:01:44.200Z,14.36
2018-06-14T02:03:11.776Z,14.37
2018-06-14T02:04:40.245Z,14.36
2018-06-14T02:06:06.567Z,14.36
2018-06-14T02:07:35.107Z,14.35
2018-06-14T02:09:01.408Z,14.34
2018-06-14T02:10:28.799Z,14.34
2018-06-14T02:11:56.978Z,14.34
2018-06-14T02:13:24.466Z,14.35
2018-06-14T02:14:50.845Z,14.36
2018-06-14T02:16:18.303Z,14.36
2018-06-14T02:17:46.774Z,14.35
2018-06-14T02:19:12.965Z,14.35
2018-06-14T02:20:41.549Z,14.33
2018-06-14T02:22:07.890Z,14.31
2018-06-14T02:23:36.321Z,14.31
2018-06-14T02:25:03.740Z,14.31
2018-06-14T02:26:31.258Z,14.30
2018-06-14T02:27:57.478Z,14.29
2018-06-14T02:29:25.923Z,14.29
2018-06-14T02:30:52.442Z,14.29
2018-06-14T02:32:20.666Z,14.29
2018-06-14T02:33:46.700Z,14.30
2018-06-14T02:35:14.100Z,14.31
2018-06-14T02:36:41.498Z,14.32
2018-06-14T02:38:09.094Z,14.30
2018-06-14T02:39:37.525Z,14.28
2018-06-14T02:41:04.837Z,14.27
2018-06-14T02:42:32.384Z,14.26
2018-06-14T02:43:58.643Z,14.26
2018-06-14T02:45:27.088Z,14.27
2018-06-14T02:46:54.425Z,14.27
2018-06-14T02:48:20.734Z,14.27
2018-06-14T02:49:49.111Z,14.26
2018-06-14T02:51:16.590Z,14.23
2018-06-14T02:52:43.974Z,14.21
2018-06-14T02:54:10.330Z,14.20
2018-06-14T02:55:37.675Z,14.19
2018-06-14T02:57:06.218Z,14.18
2018-06-14T02:58:32.788Z,14.18
2018-06-14T03:00:01.109Z,14.18
2018-06-14T03:01:27.454Z,14.16
2018-06-14T03:02:56.056Z,14.14
2018-06-14T03:04:23.436Z,14.12
2018-06-14T03:05:49.853Z,14.10
2018-06-14T03:07:17.393Z,14.09
2018-06-14T03:08:44.574Z,14.08
2018-06-14T03:10:13.062Z,14.08
2018-06-14T03:11:40.459Z,14.08
2018-06-14T03:13:06.761Z,14.08
2018-06-14T03:14:34.159Z,14.08
2018-06-14T03:16:02.480Z,14.08
2018-06-14T03:17:28.861Z,14.08
2018-06-14T03:18:56.326Z,14.08
2018-06-14T03:20:23.914Z,14.08
2018-06-14T03:21:51.127Z,14.09
2018-06-14T03:23:18.662Z,14.10
2018-06-14T03:24:46.060Z,14.10
2018-06-14T03:26:14.298Z,14.08
2018-06-14T03:27:40.670Z,14.07
2018-06-14T03:29:08.331Z,14.06
2018-06-14T03:30:36.764Z,14.05
2018-06-14T03:32:03.046Z,14.03
2018-06-14T03:33:30.566Z,14.01
2018-06-14T03:34:59.138Z,13.99
2018-06-14T03:36:25.433Z,13.95
2018-06-14T03:37:52.967Z,13.90
2018-06-14T03:39:21.093Z,13.85
2018-06-14T03:40:48.597Z,13.80
2018-06-14T03:42:15.763Z,13.79
2018-06-14T03:43:43.088Z,13.79
2018-06-14T03:45:09.318Z,13.79
2018-06-14T03:46:37.724Z,13.81
2018-06-14T03:48:05.213Z,13.85
2018-06-14T03:49:31.740Z,13.95
2018-06-14T03:50:59.172Z,14.16
2018-06-14T03:52:27.656Z,14.48
2018-06-14T03:53:55.013Z,14.92
2018-06-14T03:55:21.276Z,15.39
2018-06-14T03:56:48.618Z,15.89
2018-06-14T03:58:16.157Z,16.35
2018-06-14T03:59:43.370Z,16.73
2018-06-14T04:01:11.920Z,17.03
2018-06-14T04:02:39.363Z,17.23
2018-06-14T04:04:05.975Z,17.31
2018-06-14T04:05:34.269Z,17.31
2018-06-14T04:07:00.952Z,17.26
2018-06-14T04:08:29.431Z,17.18
2018-06-14T04:09:55.947Z,17.06
2018-06-14T04:11:23.312Z,16.95
2018-06-14T04:12:50.643Z,16.85
2018-06-14T04:14:18.941Z,16.73
2018-06-14T04:15:45.213Z,16.63
2018-06-14T04:17:12.595Z,16.51
2018-06-14T04:18:41.054Z,16.40
2018-06-14T04:20:07.444Z,16.27
2018-06-14T04:21:34.921Z,16.11
2018-06-14T04:23:02.501Z,15.99
2018-06-14T04:24:30.960Z,15.90
2018-06-14T04:25:57.189Z,15.83
2018-06-14T04:27:24.794Z,15.73
2018-06-14T04:28:51.972Z,15.66
2018-06-14T04:30:20.411Z,15.59
2018-06-14T04:31:47.898Z,15.54
2018-06-14T04:33:15.332Z,15.49
2018-06-14T04:34:41.543Z,15.45
2018-06-14T04:36:09.999Z,15.41
2018-06-14T04:37:36.303Z,15.39
2018-06-14T04:39:03.667Z,15.38
2018-06-14T04:40:32.428Z,15.38
2018-06-14T04:41:59.790Z,15.39
2018-06-14T04:43:26.311Z,15.39
2018-06-14T04:44:53.711Z,15.37
2018-06-14T04:46:21.192Z,15.34
2018-06-14T04:47:48.455Z,15.33
2018-06-14T04:49:16.818Z,15.35
2018-06-14T04:50:44.361Z,15.37
2018-06-14T04:52:10.687Z,15.38
2018-06-14T04:53:38.121Z,15.41
2018-06-14T04:55:06.525Z,15.42
2018-06-14T04:56:33.024Z,15.43
2018-06-14T04:58:00.510Z,15.44
2018-06-14T04:59:28.078Z,15.42
2018-06-14T05:00:55.443Z,15.35
2018-06-14T05:02:23.066Z,15.28
2018-06-14T05:03:50.461Z,15.24
2018-06-14T05:05:19.182Z,15.18
2018-06-14T05:06:45.525Z,15.16
2018-06-14T05:08:12.836Z,15.10
2018-06-14T05:09:40.185Z,15.07
2018-06-14T05:11:08.800Z,15.05
2018-06-14T05:12:35.188Z,15.01
2018-06-14T05:14:02.696Z,14.98
2018-06-14T05:15:30.146Z,14.96
2018-06-14T05:16:58.812Z,14.97
2018-06-14T05:18:25.107Z,15.01
2018-06-14T05:19:53.661Z,15.05
2018-06-14T05:21:20.053Z,15.06
2018-06-14T05:22:48.403Z,15.06
2018-06-14T05:24:15.477Z,15.03
2018-06-14T05:25:41.847Z,15.05
2018-06-14T05:27:09.187Z,15.06
2018-06-14T05:28:36.571Z,15.06
2018-06-14T05:30:03.831Z,15.10
2018-06-14T05:31:32.467Z,15.12
2018-06-14T05:32:58.776Z,15.16
2018-06-14T05:34:27.202Z,15.23
2018-06-14T05:35:54.718Z,15.30
2018-06-14T05:37:21.077Z,15.36
2018-06-14T05:38:48.539Z,15.42
2018-06-14T05:40:16.030Z,15.50
2018-06-14T05:41:43.463Z,15.57
2018-06-14T05:43:10.853Z,15.65
2018-06-14T05:44:38.163Z,15.71
2018-06-14T05:46:05.630Z,15.74
2018-06-14T05:47:32.913Z,15.76
2018-06-14T05:49:00.498Z,15.77
2018-06-14T05:50:27.772Z,15.77
2018-06-14T05:51:55.260Z,15.81
2018-06-14T05:53:22.588Z,15.84
2018-06-14T05:54:51.007Z,15.84
2018-06-14T05:56:18.625Z,15.85
2018-06-14T05:57:44.844Z,15.83
2018-06-14T05:59:12.356Z,15.81
2018-06-14T06:00:39.780Z,15.80
2018-06-14T06:02:07.100Z,15.77
2018-06-14T06:03:34.480Z,15.76
2018-06-14T06:05:03.056Z,15.75
2018-06-14T06:06:29.463Z,15.72
2018-06-14T06:07:56.896Z,15.70
2018-06-14T06:09:24.142Z,15.66
2018-06-14T06:10:51.547Z,15.63
2018-06-14T06:12:20.113Z,15.62
2018-06-14T06:13:47.477Z,15.61
2018-06-14T06:15:13.948Z,15.60
2018-06-14T06:16:41.197Z,15.60
2018-06-14T06:18:08.545Z,15.60
2018-06-14T06:19:37.235Z,15.57
2018-06-14T06:21:03.549Z,15.55
2018-06-14T06:22:30.866Z,15.53
2018-06-14T06:23:58.455Z,15.51
2018-06-14T06:25:26.858Z,15.50
2018-06-14T06:26:53.347Z,15.51
2018-06-14T06:28:20.769Z,15.52
2018-06-14T06:29:48.414Z,15.55
2018-06-14T06:31:15.681Z,15.58
2018-06-14T06:32:43.204Z,15.62
2018-06-14T06:34:11.823Z,15.69
2018-06-14T06:35:37.927Z,15.76
2018-06-14T06:37:05.368Z,15.84
2018-06-14T06:38:34.023Z,15.91
2018-06-14T06:40:00.317Z,15.97
2018-06-14T06:41:27.708Z,15.98
2018-06-14T06:42:55.137Z,15.97
2018-06-14T06:44:22.381Z,15.96
2018-06-14T06:45:49.795Z,15.96
2018-06-14T06:47:18.345Z,15.96
2018-06-14T06:48:44.611Z,15.96
2018-06-14T06:50:13.094Z,15.98
2018-06-14T06:51:39.359Z,15.99
2018-06-14T06:53:06.980Z,16.05
2018-06-14T06:54:34.309Z,16.18
2018-06-14T06:56:01.717Z,16.34
2018-06-14T06:57:30.367Z,16.54
2018-06-14T06:58:56.696Z,16.73
2018-06-14T07:00:24.189Z,16.89
2018-06-14T07:01:51.774Z,17.01
2018-06-14T07:03:19.199Z,17.09
2018-06-14T07:04:46.596Z,17.18
2018-06-14T07:06:15.124Z,17.27
2018-06-14T07:07:41.434Z,17.35
2018-06-14T07:09:08.814Z,17.43
2018-06-14T07:10:36.294Z,17.51
2018-06-14T07:12:03.751Z,17.57
2018-06-14T07:13:31.192Z,17.65
2018-06-14T07:14:58.578Z,17.72
2018-06-14T07:16:27.197Z,17.81
2018-06-14T07:17:53.505Z,17.90
2018-06-14T07:19:21.983Z,17.98
2018-06-14T07:20:48.129Z,18.03
2018-06-14T07:22:15.502Z,18.06
2018-06-14T07:23:43.010Z,18.15
2018-06-14T07:25:10.565Z,18.28
2018-06-14T07:26:38.199Z,18.45
2018-06-14T07:28:06.724Z,18.55
2018-06-14T07:29:33.201Z,18.60
2018-06-14T07:31:00.669Z,18.63
2018-06-14T07:32:28.087Z,18.68
2018-06-14T07:33:55.759Z,18.66
2018-06-14T07:35:23.182Z,18.68
2018-06-14T07:36:50.721Z,18.71
2018-06-14T07:38:18.137Z,18.72
2018-06-14T07:39:45.745Z,18.75
2018-06-14T07:41:13.238Z,18.78
2018-06-14T07:42:40.725Z,18.80
2018-06-14T07:44:08.240Z,18.80
2018-06-14T07:45:35.906Z,18.77
2018-06-14T07:47:04.358Z,18.73
2018-06-14T07:48:30.770Z,18.65
2018-06-14T07:49:58.084Z,18.52
2018-06-14T07:51:25.651Z,18.42
2018-06-14T07:52:54.272Z,18.40
2018-06-14T07:54:20.663Z,18.38
2018-06-14T07:55:48.227Z,18.39
2018-06-14T07:57:15.618Z,18.42
2018-06-14T07:58:43.294Z,18.50
2018-06-14T08:00:10.800Z,18.60
2018-06-14T08:01:39.216Z,18.69
2018-06-14T08:03:05.634Z,18.77
2018-06-14T08:04:32.911Z,18.80
2018-06-14T08:06:00.368Z,18.77
2018-06-14T08:07:27.882Z,18.74
2018-06-14T08:08:56.521Z,18.70
2018-06-14T08:10:22.966Z,18.69
2018-06-14T08:11:51.560Z,18.71
2018-06-14T08:13:18.059Z,18.76
2018-06-14T08:14:45.582Z,18.82
2018-06-14T08:16:14.011Z,18.90
2018-06-14T08:17:41.439Z,18.97
2018-06-14T08:19:08.935Z,19.04
2018-06-14T08:20:36.506Z,19.09
2018-06-14T08:22:03.175Z,19.12
2018-06-14T08:23:30.669Z,19.13
2018-06-14T08:24:58.107Z,19.09
2018-06-14T08:26:26.736Z,19.06
2018-06-14T08:27:53.164Z,19.01
2018-06-14T08:29:20.510Z,19.02
2018-06-14T08:30:48.070Z,19.07
2018-06-14T08:32:16.385Z,19.14
2018-06-14T08:33:43.614Z,19.16
2018-06-14T08:35:10.167Z,19.17
2018-06-14T08:36:37.868Z,19.22
2018-06-14T08:38:05.349Z,19.25
2018-06-14T08:39:32.901Z,19.17
2018-06-14T08:41:00.497Z,19.10
2018-06-14T08:42:27.935Z,19.07
2018-06-14T08:43:56.591Z,19.08
2018-06-14T08:45:24.254Z,19.13
2018-06-14T08:46:50.822Z,19.24
2018-06-14T08:48:18.244Z,19.29
2018-06-14T08:49:45.656Z,19.34
2018-06-14T08:51:13.103Z,19.39
2018-06-14T08:52:40.745Z,19.35
2018-06-14T08:54:09.433Z,19.30
2018-06-14T08:55:35.905Z,19.24
2018-06-14T08:57:03.146Z,19.18
2018-06-14T08:58:30.686Z,19.12
2018-06-14T08:59:59.339Z,19.14
2018-06-14T09:01:26.876Z,19.19
2018-06-14T09:02:53.247Z,19.27
2018-06-14T09:04:20.755Z,19.38
2018-06-14T09:05:49.485Z,19.47
2018-06-14T09:07:15.952Z,19.50
2018-06-14T09:08:44.417Z,19.52
2018-06-14T09:10:11.755Z,19.49
2018-06-14T09:11:38.366Z,19.48
2018-06-14T09:13:05.770Z,19.49
2018-06-14T09:14:33.279Z,19.48
2018-06-14T09:16:00.606Z,19.44
2018-06-14T09:17:28.081Z,19.41
2018-06-14T09:18:56.551Z,19.38
2018-06-14T09:20:23.065Z,19.35
2018-06-14T09:21:50.563Z,19.32
2018-06-14T09:23:18.198Z,19.26
2018-06-14T09:24:45.735Z,19.19
2018-06-14T09:26:14.123Z,19.16
2018-06-14T09:27:40.549Z,19.13
2018-06-14T09:29:07.906Z,19.12
2018-06-14T09:30:35.477Z,19.15
2018-06-14T09:32:02.768Z,19.21
2018-06-14T09:33:31.082Z,19.30
2018-06-14T09:34:57.675Z,19.36
2018-06-14T09:36:26.216Z,19.40
2018-06-14T09:37:52.787Z,19.47
2018-06-14T09:39:20.029Z,19.55
2018-06-14T09:40:47.599Z,19.65
2018-06-14T09:42:15.181Z,19.78
2018-06-14T09:43:42.812Z,19.91
2018-06-14T09:45:10.176Z,20.01
2018-06-14T09:46:37.807Z,20.08
2018-06-14T09:48:05.416Z,20.15
2018-06-14T09:49:33.949Z,20.18
2018-06-14T09:51:01.687Z,20.18
2018-06-14T09:52:29.156Z,20.15
2018-06-14T09:53:55.497Z,20.10
2018-06-14T09:55:24.143Z,20.06
2018-06-14T09:56:50.645Z,20.01
2018-06-14T09:58:19.236Z,19.95
2018-06-14T09:59:45.717Z,19.91
2018-06-14T10:01:13.246Z,19.86
2018-06-14T10:02:41.721Z,19.80
2018-06-14T10:04:08.059Z,19.74
2018-06-14T10:05:35.393Z,19.69
2018-06-14T10:07:02.776Z,19.68
2018-06-14T10:08:31.307Z,19.68
2018-06-14T10:09:57.720Z,19.76
2018-06-14T10:11:25.129Z,19.82
2018-06-14T10:12:52.751Z,19.88
2018-06-14T10:14:20.253Z,19.96
2018-06-14T10:15:47.700Z,20.06
2018-06-14T10:17:16.101Z,20.19
2018-06-14T10:18:42.669Z,20.28
2018-06-14T10:20:11.177Z,20.30
2018-06-14T10:21:37.564Z,20.27
2018-06-14T10:23:05.111Z,20.23
2018-06-14T10:24:32.519Z,20.20
2018-06-14T10:25:59.848Z,20.17
2018-06-14T10:27:28.314Z,20.15
2018-06-14T10:28:54.727Z,20.18
2018-06-14T10:30:22.466Z,20.25
2018-06-14T10:31:50.830Z,20.34
2018-06-14T10:33:17.268Z,20.43
2018-06-14T10:34:44.821Z,20.52
2018-06-14T10:36:12.442Z,20.63
2018-06-14T10:37:39.832Z,20.74
2018-06-14T10:39:07.397Z,20.85
2018-06-14T10:40:35.156Z,20.93
2018-06-14T10:42:02.572Z,21.02
2018-06-14T10:43:31.249Z,21.13
2018-06-14T10:44:58.835Z,21.24
2018-06-14T10:46:26.009Z,21.29
2018-06-14T10:47:52.489Z,21.29
2018-06-14T10:49:20.178Z,21.28
2018-06-14T10:50:47.773Z,21.27
2018-06-14T10:52:15.079Z,21.27
2018-06-14T10:53:43.485Z,21.30
2018-06-14T10:55:09.930Z,21.31
2018-06-14T10:56:37.538Z,21.30
2018-06-14T10:58:06.163Z,21.29
2018-06-14T10:59:32.455Z,21.34
2018-06-14T11:00:59.999Z,21.35
2018-06-14T11:02:27.617Z,21.33
2018-06-14T11:03:55.162Z,21.31
2018-06-14T11:05:16.703Z,21.32
2018-06-14T11:06:51.334Z,21.35
2018-06-14T11:08:18.801Z,21.54
2018-06-14T11:09:45.114Z,21.78
2018-06-14T11:11:13.817Z,21.93
2018-06-14T11:12:41.256Z,22.12
2018-06-14T11:14:08.920Z,22.29
2018-06-14T11:15:35.459Z,22.45
2018-06-14T11:17:03.088Z,22.56
2018-06-14T11:18:30.596Z,22.67
2018-06-14T11:19:59.097Z,22.84
2018-06-14T11:21:25.508Z,22.88
2018-06-14T11:22:53.092Z,22.80
2018-06-14T11:24:21.663Z,22.64
2018-06-14T11:25:49.199Z,22.67
2018-06-14T11:27:15.757Z,22.83
2018-06-14T11:28:43.203Z,22.91
2018-06-14T11:30:10.735Z,22.88
2018-06-14T11:31:39.315Z,22.79
2018-06-14T11:33:06.834Z,22.64
2018-06-14T11:34:33.319Z,22.62
2018-06-14T11:36:00.882Z,22.63
2018-06-14T11:37:28.441Z,22.58
2018-06-14T11:38:56.217Z,22.46
2018-06-14T11:40:23.862Z,22.20
2018-06-14T11:41:51.365Z,22.14
2018-06-14T11:43:19.956Z,22.36
2018-06-14T11:44:47.523Z,22.58
2018-06-14T11:46:14.278Z,22.70
2018-06-14T11:47:41.865Z,22.73
2018-06-14T11:49:09.309Z,22.69
2018-06-14T11:50:36.874Z,22.74
2018-06-14T11:52:05.559Z,22.80
2018-06-14T11:53:32.232Z,22.77
2018-06-14T11:54:59.677Z,22.72
2018-06-14T11:56:27.150Z,22.61
2018-06-14T11:57:54.758Z,22.60
2018-06-14T11:59:22.313Z,22.57
2018-06-14T12:00:49.615Z,22.49
2018-06-14T12:02:17.263Z,22.24
2018-06-14T12:03:44.963Z,22.41
2018-06-14T12:05:12.414Z,22.62
2018-06-14T12:06:39.957Z,22.86
2018-06-14T12:08:07.627Z,23.06
2018-06-14T12:09:35.147Z,23.19
2018-06-14T12:11:02.671Z,23.05
2018-06-14T12:12:30.184Z,22.94
2018-06-14T12:13:58.671Z,22.88
2018-06-14T12:15:25.161Z,22.69
2018-06-14T12:16:52.771Z,22.56
2018-06-14T12:18:20.401Z,22.45
2018-06-14T12:19:48.003Z,22.34
2018-06-14T12:21:16.621Z,22.25
2018-06-14T12:22:44.064Z,22.16
2018-06-14T12:24:11.742Z,21.97
2018-06-14T12:25:38.463Z,21.91
2018-06-14T12:27:06.022Z,21.85
2018-06-14T12:28:33.551Z,21.74
2018-06-14T12:30:01.106Z,21.65
2018-06-14T12:31:28.713Z,21.57
2018-06-14T12:32:57.281Z,21.52
2018-06-14T12:34:23.673Z,21.48
2018-06-14T12:35:51.921Z,21.44
2018-06-14T12:37:18.456Z,21.40
2018-06-14T12:38:45.916Z,21.39
2018-06-14T12:40:14.515Z,21.42
2018-06-14T12:41:41.032Z,21.41
2018-06-14T12:43:08.412Z,21.34
2018-06-14T12:44:35.897Z,21.28
2018-06-14T12:46:03.420Z,21.23
2018-06-14T12:47:31.073Z,21.18
2018-06-14T12:48:59.636Z,21.15
2018-06-14T12:50:25.990Z,21.16
2018-06-14T12:51:53.477Z,21.17
2018-06-14T12:53:21.999Z,21.25
2018-06-14T12:54:48.475Z,21.43
2018-06-14T12:56:15.872Z,21.63
2018-06-14T12:57:44.385Z,21.84
2018-06-14T12:59:10.957Z,21.91
2018-06-14T13:00:38.128Z,21.91
2018-06-14T13:02:05.634Z,21.94
2018-06-14T13:03:33.199Z,21.96
2018-06-14T13:05:01.650Z,21.91
2018-06-14T13:06:29.336Z,21.86
2018-06-14T13:07:55.818Z,21.80
2018-06-14T13:09:23.424Z,21.74
2018-06-14T13:10:52.006Z,21.70
2018-06-14T13:12:18.580Z,21.70
2018-06-14T13:13:47.023Z,21.75
2018-06-14T13:15:13.885Z,21.81
2018-06-14T13:16:41.341Z,21.81
2018-06-14T13:18:08.821Z,21.77
2018-06-14T13:19:36.220Z,21.73
2018-06-14T13:21:04.684Z,21.67
2018-06-14T13:22:31.336Z,21.62
2018-06-14T13:23:58.950Z,21.56
2018-06-14T13:25:26.529Z,21.51
2018-06-14T13:26:54.940Z,21.31
2018-06-14T13:28:22.448Z,21.31
2018-06-14T13:29:50.043Z,21.32
2018-06-14T13:31:16.450Z,21.33
2018-06-14T13:32:45.113Z,21.34
2018-06-14T13:34:11.605Z,21.36
2018-06-14T13:35:38.921Z,21.36
2018-06-14T13:37:06.540Z,21.37
2018-06-14T13:38:35.081Z,21.36
2018-06-14T13:40:01.594Z,21.29
2018-06-14T13:41:29.992Z,21.23
2018-06-14T13:42:56.474Z,21.22
2018-06-14T13:44:25.186Z,21.21
2018-06-14T13:45:51.586Z,21.22
2018-06-14T13:47:19.017Z,21.22
2018-06-14T13:48:46.674Z,21.21
2018-06-14T13:50:14.026Z,21.21
2018-06-14T13:51:42.721Z,21.20
2018-06-14T13:53:10.132Z,21.12
2018-06-14T13:54:36.862Z,21.18
2018-06-14T13:56:04.510Z,21.28
2018-06-14T13:57:33.229Z,21.40
2018-06-14T13:58:59.608Z,21.52
2018-06-14T14:00:28.309Z,21.62
2018-06-14T14:01:54.835Z,21.68
2018-06-14T14:03:22.585Z,21.71
2018-06-14T14:04:50.023Z,21.71
2018-06-14T14:06:17.670Z,21.69
2018-06-14T14:07:46.358Z,21.64
2018-06-14T14:09:12.867Z,21.60
2018-06-14T14:10:46.600Z,21.57
2018-06-14T14:12:09.026Z,21.52
2018-06-14T14:13:35.496Z,21.50
2018-06-14T14:15:02.975Z,21.48
2018-06-14T14:16:31.621Z,21.49
2018-06-14T14:17:58.122Z,21.51
2018-06-14T14:19:25.547Z,21.55
2018-06-14T14:20:54.294Z,21.59
2018-06-14T14:22:20.754Z,21.61
2018-06-14T14:23:48.213Z,21.62
2018-06-14T14:25:15.934Z,21.60
2018-06-14T14:26:44.482Z,21.55
2018-06-14T14:28:10.934Z,21.50
2018-06-14T14:29:38.263Z,21.46
2018-06-14T14:31:05.753Z,21.42
2018-06-14T14:32:33.418Z,21.40
2018-06-14T14:34:00.921Z,21.38
2018-06-14T14:35:29.505Z,21.36
2018-06-14T14:36:57.124Z,21.36
2018-06-14T14:38:23.830Z,21.35
2018-06-14T14:39:51.304Z,21.34
2018-06-14T14:41:19.888Z,21.33
2018-06-14T14:42:46.497Z,21.34
2018-06-14T14:44:14.048Z,21.33
2018-06-14T14:45:41.464Z,21.34
2018-06-14T14:47:08.766Z,21.36
2018-06-14T14:48:36.446Z,21.39
2018-06-14T14:50:05.047Z,21.42
2018-06-14T14:51:32.497Z,21.46
2018-06-14T14:52:59.161Z,21.48
2018-06-14T14:54:26.749Z,21.49
2018-06-14T14:55:54.213Z,21.49
2018-06-14T14:57:21.942Z,21.50
2018-06-14T14:58:49.245Z,21.51
2018-06-14T15:00:17.079Z,21.53
2018-06-14T15:01:44.497Z,21.53
2018-06-14T15:03:13.051Z,21.53
2018-06-14T15:04:39.470Z,21.53
2018-06-14T15:06:07.004Z,21.52
2018-06-14T15:07:34.429Z,21.51
2018-06-14T15:09:01.946Z,21.49
2018-06-14T15:10:29.572Z,21.45
2018-06-14T15:11:58.326Z,21.42
2018-06-14T15:13:24.975Z,21.39
2018-06-14T15:14:52.565Z,21.37
2018-06-14T15:16:19.961Z,21.33
2018-06-14T15:17:47.571Z,21.29
2018-06-14T15:19:14.972Z,21.26
2018-06-14T15:20:42.562Z,21.23
2018-06-14T15:22:10.151Z,21.21
2018-06-14T15:23:37.676Z,21.19
2018-06-14T15:25:05.249Z,21.18
2018-06-14T15:26:33.938Z,21.19
2018-06-14T15:28:01.523Z,21.20
2018-06-14T15:29:28.034Z,21.22
2018-06-14T15:30:56.576Z,21.24
2018-06-14T15:32:23.154Z,21.28
2018-06-14T15:33:50.657Z,21.32
2018-06-14T15:35:18.211Z,21.36
2018-06-14T15:36:45.844Z,21.41
2018-06-14T15:38:14.275Z,21.45
2018-06-14T15:39:40.661Z,21.49
2018-06-14T15:41:08.204Z,21.54
2018-06-14T15:42:35.796Z,21.58
2018-06-14T15:44:03.368Z,21.62
2018-06-14T15:45:30.872Z,21.66
2018-06-14T15:46:58.562Z,21.72
2018-06-14T15:48:26.079Z,21.77
2018-06-14T15:49:53.315Z,21.81
2018-06-14T15:51:20.850Z,21.85
2018-06-14T15:52:49.558Z,21.89
2018-06-14T15:54:16.103Z,21.92
2018-06-14T15:55:44.617Z,21.94
2018-06-14T15:57:11.037Z,21.98
2018-06-14T15:58:39.543Z,22.01
2018-06-14T16:00:06.173Z,22.04
2018-06-14T16:01:33.673Z,22.07
2018-06-14T16:03:02.203Z,22.11
2018-06-14T16:04:28.798Z,22.15
2018-06-14T16:05:56.311Z,22.18
2018-06-14T16:07:23.923Z,22.20
2018-06-14T16:08:51.494Z,22.21
2018-06-14T16:10:19.174Z,22.20
2018-06-14T16:11:46.711Z,22.18
2018-06-14T16:13:15.267Z,22.13
2018-06-14T16:14:41.857Z,22.08
2018-06-14T16:16:09.151Z,22.00
2018-06-14T16:17:36.696Z,21.92
2018-06-14T16:19:04.272Z,21.84
2018-06-14T16:20:32.757Z,21.76
2018-06-14T16:21:59.091Z,21.69
2018-06-14T16:23:26.742Z,21.63
2018-06-14T16:24:54.332Z,21.56
2018-06-14T16:26:21.829Z,21.49
2018-06-14T16:27:49.373Z,21.42
2018-06-14T16:29:16.951Z,21.37
2018-06-14T16:30:44.489Z,21.36
2018-06-14T16:32:12.078Z,21.35
2018-06-14T16:33:39.607Z,21.35
2018-06-14T16:35:07.177Z,21.36
2018-06-14T16:36:34.707Z,21.37
2018-06-14T16:38:02.290Z,21.38
2018-06-14T16:39:29.878Z,21.38
2018-06-14T16:40:57.529Z,21.40
2018-06-14T16:42:25.948Z,21.41
2018-06-14T16:43:52.597Z,21.42
2018-06-14T16:45:20.091Z,21.44
2018-06-14T16:46:47.671Z,21.46
2018-06-14T16:48:15.091Z,21.48
2018-06-14T16:49:43.703Z,21.51
2018-06-14T16:51:10.075Z,21.54
2018-06-14T16:52:38.763Z,21.57
2018-06-14T16:54:05.275Z,21.60
2018-06-14T16:55:36.034Z,21.63
2018-06-14T16:57:00.575Z,21.65
2018-06-14T16:58:28.971Z,21.66
2018-06-14T16:59:55.451Z,21.66
2018-06-14T17:01:23.133Z,21.67
2018-06-14T17:02:51.650Z,21.68
2018-06-14T17:04:18.129Z,21.67
2018-06-14T17:05:45.837Z,21.64
2018-06-14T17:07:14.466Z,21.61
2018-06-14T17:08:41.804Z,21.56
2018-06-14T17:10:08.236Z,21.51
2018-06-14T17:11:36.651Z,21.47
2018-06-14T17:13:03.281Z,21.44
2018-06-14T17:14:30.862Z,21.41
2018-06-14T17:15:58.526Z,21.37
2018-06-14T17:17:27.145Z,21.33
2018-06-14T17:18:54.747Z,21.30
2018-06-14T17:20:21.287Z,21.28
2018-06-14T17:21:49.846Z,21.25
2018-06-14T17:23:17.472Z,21.21
2018-06-14T17:24:44.765Z,21.19
2018-06-14T17:26:12.021Z,21.16
2018-06-14T17:27:38.449Z,21.12
2018-06-14T17:29:06.049Z,21.10
2018-06-14T17:30:33.554Z,21.07
2018-06-14T17:32:01.970Z,21.03
2018-06-14T17:33:28.724Z,21.01
2018-06-14T17:34:57.325Z,20.98
2018-06-14T17:36:23.630Z,20.94
2018-06-14T17:37:52.163Z,20.89
2018-06-14T17:39:19.674Z,20.85
2018-06-14T17:40:47.128Z,20.81
2018-06-14T17:42:14.464Z,20.78
2018-06-14T17:43:42.089Z,20.74
2018-06-14T17:45:08.411Z,20.70
2018-06-14T17:46:35.960Z,20.66
2018-06-14T17:48:04.349Z,20.62
2018-06-14T17:49:30.852Z,20.59
2018-06-14T17:50:58.627Z,20.56
2018-06-14T17:52:26.021Z,20.53
2018-06-14T17:53:54.696Z,20.50
2018-06-14T17:55:21.182Z,20.47
2018-06-14T17:56:49.849Z,20.43
2018-06-14T17:58:16.346Z,20.40
2018-06-14T17:59:43.676Z,20.37
2018-06-14T18:01:11.167Z,20.34
2018-06-14T18:02:39.422Z,20.32
2018-06-14T18:04:06.020Z,20.28
2018-06-14T18:05:33.650Z,20.25
2018-06-14T18:07:01.178Z,20.22
2018-06-14T18:08:28.951Z,20.19
2018-06-14T18:09:56.425Z,20.16
2018-06-14T18:11:23.998Z,20.14
2018-06-14T18:12:51.646Z,20.11
2018-06-14T18:14:19.254Z,20.08
2018-06-14T18:15:47.830Z,20.06
2018-06-14T18:17:14.329Z,20.05
2018-06-14T18:18:42.869Z,20.03
2018-06-14T18:20:09.302Z,20.02
2018-06-14T18:21:38.003Z,20.01
2018-06-14T18:23:04.476Z,20.00
2018-06-14T18:24:31.974Z,19.99
2018-06-14T18:25:59.440Z,19.97
2018-06-14T18:27:26.850Z,19.96
2018-06-14T18:28:55.357Z,19.95
2018-06-14T18:30:22.749Z,19.94
2018-06-14T18:31:49.188Z,19.93
2018-06-14T18:33:16.626Z,19.92
2018-06-14T18:34:44.290Z,19.91
2018-06-14T18:36:11.765Z,19.91
2018-06-14T18:37:39.216Z,19.89
2018-06-14T18:39:06.734Z,19.88
2018-06-14T18:40:35.434Z,19.87
2018-06-14T18:42:02.916Z,19.86
2018-06-14T18:43:29.053Z,19.84
2018-06-14T18:44:56.546Z,19.82
2018-06-14T18:46:24.244Z,19.81